Terminal Aerodrome Forecast
Issued by NWS Jackson, MS

Home | Current Version | Previous Version | Text Only | Print | Product List | Glossary On
Versions: 1 2 3 4 5 6 7 8 9 10 11 12 13
000
FTUS44 KJAN 241120
TAFGWO
TAF
KGWO 241120Z 2412/2512 14009KT P6SM SCT060 BKN250
     FM241400 15016G22KT P6SM OVC025
     FM241600 15017G24KT P6SM BKN035
     FM241800 16019G25KT P6SM VCTS SCT040CB BKN250
     FM250000 13017G24KT 1SM +TSRA BR OVC035CB
     FM250200 15017KT 3SM -RA BR VCTS OVC050CB
     FM250600 16018KT P6SM -RA OVC050=

USA.gov is the U.S. government's official web portal to all federal, state and local government web resources and services.